createdAt,value
2023-03-08T00:01:56.071Z,3.73
2023-03-08T00:04:22.498Z,0.73
2023-03-08T00:06:48.919Z,3.00
2023-03-08T00:09:15.246Z,2.80
2023-03-08T00:11:41.689Z,3.30
2023-03-08T00:14:07.982Z,1.63
2023-03-08T00:16:34.301Z,3.27
2023-03-08T00:19:00.603Z,1.83
2023-03-08T00:21:26.951Z,1.07
2023-03-08T00:23:56.518Z,1.17
2023-03-08T00:26:23.154Z,3.63
2023-03-08T00:28:49.495Z,1.57
2023-03-08T00:31:15.849Z,1.33
2023-03-08T00:33:42.305Z,1.47
2023-03-08T00:36:18.613Z,3.13
2023-03-08T00:38:45.197Z,1.50
2023-03-08T00:41:11.949Z,1.37
2023-03-08T00:43:38.584Z,6.23
2023-03-08T00:46:05.395Z,2.20
2023-03-08T00:48:31.798Z,0.80
2023-03-08T00:50:58.186Z,3.00
2023-03-08T00:53:24.467Z,1.43
2023-03-08T00:55:51.729Z,14.17
2023-03-08T00:58:18.527Z,3.83
2023-03-08T01:00:45.230Z,6.13
2023-03-08T01:03:11.621Z,2.00
2023-03-08T01:05:41.102Z,6.10
2023-03-08T01:08:07.496Z,3.27
2023-03-08T01:10:34.078Z,2.87
2023-03-08T01:13:00.520Z,4.20
2023-03-08T01:15:26.898Z,1.77
2023-03-08T01:17:53.199Z,2.77
2023-03-08T01:20:19.605Z,4.43
2023-03-08T01:22:45.915Z,3.37
2023-03-08T01:25:12.216Z,4.53
2023-03-08T01:27:38.553Z,2.60
2023-03-08T01:30:05.081Z,2.67
2023-03-08T01:32:31.485Z,2.07
2023-03-08T01:35:02.013Z,2.30
2023-03-08T01:37:28.401Z,3.00
2023-03-08T01:39:54.701Z,2.90
2023-03-08T01:42:21.027Z,1.97
2023-03-08T01:44:50.713Z,1.83
2023-03-08T01:47:21.146Z,4.00
2023-03-08T01:49:47.887Z,3.20
2023-03-08T01:52:23.426Z,3.47
2023-03-08T01:54:52.840Z,2.97
2023-03-08T01:57:24.024Z,0.47
2023-03-08T01:59:51.103Z,2.27
2023-03-08T02:02:21.252Z,4.33
2023-03-08T02:04:47.576Z,3.03
2023-03-08T02:07:13.876Z,1.50
2023-03-08T02:09:40.313Z,0.83
2023-03-08T02:12:08.814Z,0.87
2023-03-08T02:14:35.173Z,2.13
2023-03-08T02:17:01.510Z,1.30
2023-03-08T02:19:33.971Z,0.83
2023-03-08T02:22:07.472Z,0.97
2023-03-08T02:24:33.758Z,1.47
2023-03-08T02:27:02.184Z,0.20
2023-03-08T02:29:28.488Z,1.80
2023-03-08T02:31:54.783Z,0.60
2023-03-08T02:34:21.216Z,0.27
2023-03-08T02:36:47.548Z,0.53
2023-03-08T02:39:14.014Z,3.50
2023-03-08T02:41:40.391Z,1.40
2023-03-08T02:44:06.715Z,0.97
2023-03-08T02:46:34.270Z,0.63
2023-03-08T02:49:00.546Z,2.83
2023-03-08T02:51:26.986Z,2.13
2023-03-08T02:53:53.399Z,0.77
2023-03-08T02:56:19.717Z,0.37
2023-03-08T02:58:46.012Z,1.03
2023-03-08T03:01:15.886Z,1.00
2023-03-08T03:03:42.481Z,0.47
2023-03-08T03:06:16.148Z,0.33
2023-03-08T03:08:42.513Z,5.40
2023-03-08T03:11:16.660Z,2.47
2023-03-08T03:13:43.266Z,4.80
2023-03-08T03:16:11.215Z,2.00
2023-03-08T03:18:37.613Z,1.10
2023-03-08T03:21:05.148Z,2.53
2023-03-08T03:23:31.501Z,1.23
2023-03-08T03:26:03.333Z,2.17
2023-03-08T03:28:29.637Z,0.30
2023-03-08T03:30:55.982Z,2.70
2023-03-08T03:33:22.309Z,0.20
2023-03-08T03:35:48.689Z,3.93
2023-03-08T03:38:15.110Z,3.47
2023-03-08T03:40:41.518Z,0.73
2023-03-08T03:43:07.810Z,4.63
2023-03-08T03:45:34.171Z,1.90
2023-03-08T03:48:00.494Z,3.80
2023-03-08T03:50:26.802Z,2.10
2023-03-08T03:52:53.089Z,2.27
2023-03-08T03:55:19.533Z,1.63
2023-03-08T03:57:45.946Z,1.37
2023-03-08T04:00:12.613Z,4.90
2023-03-08T04:02:39.027Z,2.60
2023-03-08T04:05:07.567Z,2.33
2023-03-08T04:07:34.019Z,3.30
2023-03-08T04:10:00.313Z,2.73
2023-03-08T04:12:26.746Z,0.97
2023-03-08T04:14:53.415Z,0.43
2023-03-08T04:17:19.726Z,2.80
2023-03-08T04:19:48.029Z,0.73
2023-03-08T04:22:14.348Z,3.47
2023-03-08T04:24:40.724Z,1.87
2023-03-08T04:27:07.040Z,1.93
2023-03-08T04:29:33.440Z,3.80
2023-03-08T04:32:00.344Z,3.90
2023-03-08T04:34:27.541Z,0.77
2023-03-08T04:36:53.863Z,3.07
2023-03-08T04:39:20.203Z,1.70
2023-03-08T04:41:46.535Z,1.00
2023-03-08T04:44:12.841Z,3.00
2023-03-08T04:46:39.282Z,1.30
2023-03-08T04:49:05.598Z,1.03
2023-03-08T04:51:31.998Z,1.67
2023-03-08T04:53:58.301Z,1.60
2023-03-08T04:56:24.641Z,1.63
2023-03-08T04:58:51.052Z,3.40
2023-03-08T05:01:18.413Z,1.60
2023-03-08T05:03:45.192Z,1.37
2023-03-08T05:06:12.392Z,4.20
2023-03-08T05:08:38.686Z,2.30
2023-03-08T05:11:05.390Z,3.53
2023-03-08T05:13:33.242Z,0.63
2023-03-08T05:15:59.625Z,0.60
2023-03-08T05:18:25.984Z,5.80
2023-03-08T05:20:59.175Z,2.03
2023-03-08T05:23:28.112Z,3.40
2023-03-08T05:25:55.634Z,1.27
2023-03-08T05:28:23.140Z,1.97
2023-03-08T05:30:49.938Z,2.80
2023-03-08T05:33:17.493Z,4.27
2023-03-08T05:35:43.960Z,2.40
2023-03-08T05:38:10.313Z,4.30
2023-03-08T05:40:37.856Z,5.47
2023-03-08T05:43:04.127Z,6.33
2023-03-08T05:45:30.592Z,5.00
2023-03-08T05:47:56.996Z,5.13
2023-03-08T05:50:23.281Z,9.07
2023-03-08T05:52:49.618Z,6.33
2023-03-08T05:55:16.060Z,5.60
2023-03-08T05:57:42.349Z,5.77
2023-03-08T06:00:09.086Z,8.73
2023-03-08T06:02:35.622Z,9.10
2023-03-08T06:05:01.966Z,7.80
2023-03-08T06:07:28.379Z,8.13
2023-03-08T06:09:55.786Z,8.10
2023-03-08T06:12:22.210Z,7.70
2023-03-08T06:14:48.626Z,8.97
2023-03-08T06:17:15.009Z,14.23
2023-03-08T06:19:41.389Z,14.63
2023-03-08T06:22:07.712Z,17.27
2023-03-08T06:24:34.145Z,17.03
2023-03-08T06:27:00.522Z,19.73
2023-03-08T06:29:26.897Z,15.67
2023-03-08T06:31:53.206Z,20.83
2023-03-08T06:34:20.101Z,18.40
2023-03-08T06:36:46.377Z,21.57
2023-03-08T06:39:12.654Z,18.33
2023-03-08T06:41:39.083Z,13.23
2023-03-08T06:44:05.477Z,13.07
2023-03-08T06:46:31.908Z,19.20
2023-03-08T06:49:00.253Z,19.13
2023-03-08T06:51:26.565Z,18.67
2023-03-08T06:53:52.973Z,20.10
2023-03-08T06:56:19.378Z,21.87
2023-03-08T06:58:45.795Z,21.63
2023-03-08T07:01:13.072Z,25.47
2023-03-08T07:03:39.561Z,28.17
2023-03-08T07:06:08.080Z,28.40
2023-03-08T07:08:36.450Z,27.00
2023-03-08T07:11:03.180Z,24.97
2023-03-08T07:13:29.883Z,27.17
2023-03-08T07:15:56.889Z,23.60
2023-03-08T07:18:23.500Z,23.13
2023-03-08T07:20:53.668Z,21.57
2023-03-08T07:23:20.106Z,23.00
2023-03-08T07:25:46.525Z,18.20
2023-03-08T07:28:13.071Z,23.90
2023-03-08T07:30:39.409Z,29.57
2023-03-08T07:33:05.886Z,25.40
2023-03-08T07:35:32.392Z,26.40
2023-03-08T07:37:58.804Z,28.60
2023-03-08T07:40:25.147Z,25.77
2023-03-08T07:42:51.540Z,21.73
2023-03-08T07:45:18.749Z,20.77
2023-03-08T07:47:45.104Z,22.97
2023-03-08T07:50:11.402Z,21.23
2023-03-08T07:52:37.745Z,21.47
2023-03-08T07:55:04.265Z,19.67
2023-03-08T07:57:30.653Z,21.90
2023-03-08T07:59:56.946Z,22.83
2023-03-08T08:02:23.219Z,19.97
2023-03-08T08:04:50.683Z,24.53
2023-03-08T08:07:17.103Z,19.83
2023-03-08T08:09:43.525Z,17.37
2023-03-08T08:12:09.858Z,20.67
2023-03-08T08:14:36.265Z,19.97
2023-03-08T08:17:02.646Z,21.27
2023-03-08T08:19:29.664Z,18.57
2023-03-08T08:21:56.011Z,17.30
2023-03-08T08:24:22.323Z,13.43
2023-03-08T08:26:48.636Z,12.43
2023-03-08T08:29:15.027Z,14.43
2023-03-08T08:31:41.581Z,17.43
2023-03-08T08:34:08.215Z,13.33
2023-03-08T08:36:34.618Z,15.40
2023-03-08T08:39:01.035Z,12.97
2023-03-08T08:41:29.731Z,15.40
2023-03-08T08:43:59.566Z,18.53
2023-03-08T08:46:27.864Z,19.30
2023-03-08T08:48:54.796Z,20.07
2023-03-08T08:51:21.165Z,23.80
2023-03-08T08:53:47.490Z,24.50
2023-03-08T08:56:27.675Z,29.57
2023-03-08T08:59:00.051Z,28.90
2023-03-08T09:01:30.789Z,35.70
2023-03-08T09:03:57.766Z,33.47
2023-03-08T09:06:24.582Z,38.50
2023-03-08T09:08:55.239Z,26.70
2023-03-08T09:11:21.904Z,35.33
2023-03-08T09:13:48.422Z,36.20
2023-03-08T09:16:19.027Z,41.27
2023-03-08T09:18:45.672Z,35.50
2023-03-08T09:21:12.015Z,37.23
2023-03-08T09:23:38.445Z,29.83
2023-03-08T09:26:06.110Z,48.33
2023-03-08T09:28:32.925Z,39.50
2023-03-08T09:30:59.377Z,42.47
2023-03-08T09:33:26.172Z,47.00
2023-03-08T09:36:13.875Z,39.00
2023-03-08T09:38:40.836Z,46.93
2023-03-08T09:41:07.132Z,39.90
2023-03-08T09:43:48.437Z,44.30
2023-03-08T09:46:16.941Z,38.70
2023-03-08T09:48:47.187Z,36.93
2023-03-08T09:51:13.854Z,44.27
2023-03-08T09:53:42.583Z,34.30
2023-03-08T09:56:16.806Z,42.53
2023-03-08T09:58:46.980Z,41.83
2023-03-08T10:01:16.189Z,41.40
2023-03-08T10:04:02.846Z,39.23
2023-03-08T10:06:33.832Z,40.50
2023-03-08T10:09:07.656Z,39.97
2023-03-08T10:11:33.967Z,42.77
2023-03-08T10:14:03.062Z,40.53
2023-03-08T10:16:32.241Z,40.23
2023-03-08T10:19:01.094Z,36.83
2023-03-08T10:21:29.781Z,38.13
2023-03-08T10:23:59.509Z,32.50
2023-03-08T10:26:27.043Z,42.80
2023-03-08T10:28:53.429Z,38.63
2023-03-08T10:31:24.388Z,35.63
2023-03-08T10:33:53.698Z,36.27
2023-03-08T10:36:21.891Z,30.87
2023-03-08T10:39:07.057Z,35.07
2023-03-08T10:41:37.431Z,30.57
2023-03-08T10:44:04.050Z,35.00
2023-03-08T10:46:32.804Z,30.23
2023-03-08T10:49:18.407Z,33.00
2023-03-08T10:51:58.758Z,29.27
2023-03-08T10:54:25.663Z,32.63
2023-03-08T10:56:56.724Z,26.13
2023-03-08T10:59:29.612Z,25.23
2023-03-08T11:01:56.974Z,28.33
2023-03-08T11:04:24.842Z,24.50
2023-03-08T11:06:51.331Z,25.93
2023-03-08T11:09:28.064Z,30.83
2023-03-08T11:11:55.760Z,26.70
2023-03-08T11:14:22.438Z,24.77
2023-03-08T11:16:48.958Z,34.63
2023-03-08T11:19:34.088Z,28.77
2023-03-08T11:22:32.950Z,30.57
2023-03-08T11:25:14.596Z,28.43
2023-03-08T11:27:41.008Z,24.63
2023-03-08T11:30:22.760Z,25.83
2023-03-08T11:32:55.338Z,30.03
2023-03-08T11:35:29.800Z,28.17
2023-03-08T11:38:06.376Z,25.10
2023-03-08T11:40:51.748Z,23.47
2023-03-08T11:43:24.273Z,27.53
2023-03-08T11:46:01.877Z,25.37
2023-03-08T11:48:51.281Z,24.80
2023-03-08T11:51:21.094Z,25.57
2023-03-08T11:54:09.498Z,25.33
2023-03-08T11:56:38.654Z,22.13
2023-03-08T11:59:11.052Z,20.93
2023-03-08T12:01:41.174Z,26.13
2023-03-08T12:04:11.314Z,22.10
2023-03-08T12:06:42.612Z,19.50
2023-03-08T12:09:22.737Z,22.07
2023-03-08T12:12:07.833Z,21.27
2023-03-08T12:14:35.226Z,19.37
2023-03-08T12:17:01.826Z,18.10
2023-03-08T12:19:39.938Z,20.53
2023-03-08T12:22:23.413Z,16.13
2023-03-08T12:25:00.894Z,20.30
2023-03-08T12:27:45.927Z,24.70
2023-03-08T12:30:30.901Z,24.17
2023-03-08T12:32:59.122Z,22.10
2023-03-08T12:35:33.560Z,22.90
2023-03-08T12:38:02.799Z,16.50
2023-03-08T12:40:49.486Z,23.70
2023-03-08T12:43:21.662Z,21.93
2023-03-08T12:46:00.213Z,22.53
2023-03-08T12:48:26.842Z,20.37
2023-03-08T12:50:53.265Z,22.93
2023-03-08T12:53:22.425Z,23.40
2023-03-08T12:55:59.254Z,22.77
2023-03-08T12:58:25.974Z,23.67
2023-03-08T13:01:00.324Z,21.20
2023-03-08T13:03:28.816Z,24.73
2023-03-08T13:05:56.633Z,24.17
2023-03-08T13:08:29.535Z,24.07
2023-03-08T13:10:58.516Z,19.93
2023-03-08T13:13:43.664Z,17.43
2023-03-08T13:16:16.157Z,17.23
2023-03-08T13:18:43.720Z,18.13
2023-03-08T13:21:10.088Z,24.40
2023-03-08T13:23:38.437Z,20.03
2023-03-08T13:26:23.581Z,20.20
2023-03-08T13:28:50.101Z,19.93
2023-03-08T13:31:18.633Z,16.87
2023-03-08T13:33:52.512Z,21.10
2023-03-08T13:36:29.536Z,15.17
2023-03-08T13:38:58.968Z,21.80
2023-03-08T13:41:35.914Z,17.80
2023-03-08T13:44:03.391Z,17.20
2023-03-08T13:46:29.896Z,15.77
2023-03-08T13:48:56.374Z,19.53
2023-03-08T13:51:25.055Z,17.23
2023-03-08T13:53:51.509Z,19.97
2023-03-08T13:56:27.852Z,19.37
2023-03-08T13:58:55.707Z,20.60
2023-03-08T14:01:23.860Z,19.93
2023-03-08T14:03:51.063Z,18.60
2023-03-08T14:06:30.447Z,17.33
2023-03-08T14:09:02.343Z,19.47
2023-03-08T14:11:38.828Z,17.87
2023-03-08T14:14:07.362Z,21.93
2023-03-08T14:16:34.827Z,17.67
2023-03-08T14:19:09.737Z,14.37
2023-03-08T14:21:36.326Z,19.03
2023-03-08T14:24:06.177Z,14.87
2023-03-08T14:26:34.306Z,17.23
2023-03-08T14:29:10.045Z,18.93
2023-03-08T14:31:38.928Z,15.20
2023-03-08T14:34:17.449Z,14.77
2023-03-08T14:36:52.377Z,11.87
2023-03-08T14:39:19.098Z,16.77
2023-03-08T14:41:45.451Z,19.67
2023-03-08T14:44:18.677Z,19.23
2023-03-08T14:46:46.116Z,14.53
2023-03-08T14:49:22.654Z,14.40
2023-03-08T14:51:49.804Z,16.90
2023-03-08T14:54:24.424Z,14.37
2023-03-08T14:56:50.869Z,17.20
2023-03-08T14:59:26.862Z,14.70
2023-03-08T15:01:54.102Z,18.90
2023-03-08T15:04:22.451Z,16.67
2023-03-08T15:06:49.908Z,14.30
2023-03-08T15:09:17.480Z,13.57
2023-03-08T15:11:44.693Z,14.27
2023-03-08T15:14:14.335Z,11.93
2023-03-08T15:16:40.801Z,12.97
2023-03-08T15:19:08.711Z,12.50
2023-03-08T15:21:36.358Z,11.87
2023-03-08T15:24:02.905Z,10.30
2023-03-08T15:26:31.660Z,12.83
2023-03-08T15:28:58.610Z,16.33
2023-03-08T15:31:25.101Z,15.33
2023-03-08T15:33:51.468Z,15.63
2023-03-08T15:36:18.478Z,10.97
2023-03-08T15:38:45.340Z,15.43
2023-03-08T15:41:12.527Z,11.73
2023-03-08T15:43:39.097Z,15.30
2023-03-08T15:46:05.830Z,11.80
2023-03-08T15:48:32.321Z,11.70
2023-03-08T15:50:58.871Z,9.40
2023-03-08T15:53:34.834Z,10.53
2023-03-08T15:56:01.808Z,10.43
2023-03-08T15:58:28.211Z,8.50
2023-03-08T16:00:54.638Z,10.27
2023-03-08T16:03:26.049Z,8.47
2023-03-08T16:05:52.786Z,9.57
2023-03-08T16:08:19.197Z,9.43
2023-03-08T16:10:45.889Z,8.13
2023-03-08T16:13:12.676Z,7.80
2023-03-08T16:15:39.549Z,9.37
2023-03-08T16:18:05.860Z,6.30
2023-03-08T16:20:32.337Z,9.50
2023-03-08T16:22:58.774Z,7.30
2023-03-08T16:25:25.080Z,7.37
2023-03-08T16:27:52.616Z,7.40
2023-03-08T16:30:19.194Z,9.53
2023-03-08T16:32:45.536Z,6.63
2023-03-08T16:35:12.988Z,6.27
2023-03-08T16:37:39.280Z,8.37
2023-03-08T16:40:07.364Z,7.40
2023-03-08T16:42:33.823Z,6.70
2023-03-08T16:45:00.251Z,9.17
2023-03-08T16:47:26.852Z,6.80
2023-03-08T16:49:53.577Z,8.00
2023-03-08T16:52:20.070Z,7.37
2023-03-08T16:54:46.891Z,9.10
2023-03-08T16:57:19.197Z,9.03
2023-03-08T16:59:46.028Z,6.40
2023-03-08T17:02:16.398Z,7.87
2023-03-08T17:04:42.731Z,8.00
2023-03-08T17:07:09.828Z,7.10
2023-03-08T17:09:36.884Z,9.77
2023-03-08T17:12:03.324Z,9.10
2023-03-08T17:14:29.954Z,8.00
2023-03-08T17:16:56.448Z,7.87
2023-03-08T17:19:22.804Z,10.17
2023-03-08T17:21:49.917Z,11.83
2023-03-08T17:24:16.708Z,10.90
2023-03-08T17:26:45.763Z,12.23
2023-03-08T17:29:12.225Z,16.43
2023-03-08T17:31:40.872Z,14.67
2023-03-08T17:34:07.446Z,13.53
2023-03-08T17:36:33.832Z,14.70
2023-03-08T17:39:00.289Z,12.37
2023-03-08T17:41:26.666Z,13.30
2023-03-08T17:43:53.863Z,14.00
2023-03-08T17:46:23.972Z,12.77
2023-03-08T17:48:53.384Z,16.13
2023-03-08T17:51:21.232Z,15.93
2023-03-08T17:53:47.946Z,16.93
2023-03-08T17:56:15.686Z,18.47
2023-03-08T17:58:42.521Z,13.93
2023-03-08T18:01:18.812Z,18.13
2023-03-08T18:03:45.609Z,15.53
2023-03-08T18:06:18.623Z,20.03
2023-03-08T18:08:45.036Z,20.67
2023-03-08T18:11:11.338Z,20.07
2023-03-08T18:13:39.765Z,20.47
2023-03-08T18:16:07.003Z,21.27
2023-03-08T18:18:33.695Z,22.10
2023-03-08T18:21:12.119Z,18.13
2023-03-08T18:23:39.345Z,18.57
2023-03-08T18:26:05.715Z,19.10
2023-03-08T18:28:34.172Z,19.73
2023-03-08T18:31:00.501Z,20.70
2023-03-08T18:33:26.948Z,19.53
2023-03-08T18:35:57.407Z,23.63
2023-03-08T18:38:24.492Z,23.27
2023-03-08T18:40:50.935Z,24.77
2023-03-08T18:43:17.224Z,19.70
2023-03-08T18:45:51.151Z,20.10
2023-03-08T18:48:17.483Z,26.80
2023-03-08T18:50:44.534Z,21.60
2023-03-08T18:53:15.586Z,22.90
2023-03-08T18:55:52.510Z,20.37
2023-03-08T18:58:18.833Z,20.90
2023-03-08T19:00:45.397Z,20.13
2023-03-08T19:03:11.814Z,24.47
2023-03-08T19:05:38.306Z,28.27
2023-03-08T19:08:04.707Z,23.10
2023-03-08T19:10:32.962Z,19.30
2023-03-08T19:12:59.712Z,25.17
2023-03-08T19:15:26.044Z,28.60
2023-03-08T19:17:56.008Z,30.67
2023-03-08T19:20:22.306Z,28.73
2023-03-08T19:22:48.699Z,22.10
2023-03-08T19:25:16.107Z,25.27
2023-03-08T19:27:42.549Z,25.83
2023-03-08T19:30:09.889Z,25.63
2023-03-08T19:32:36.412Z,27.07
2023-03-08T19:35:04.525Z,25.30
2023-03-08T19:37:31.473Z,24.70
2023-03-08T19:39:58.919Z,25.27
2023-03-08T19:42:26.711Z,29.80
2023-03-08T19:44:53.395Z,27.33
2023-03-08T19:47:22.939Z,26.47
2023-03-08T19:49:50.578Z,28.93
2023-03-08T19:52:16.871Z,26.83
2023-03-08T19:54:44.389Z,25.87
2023-03-08T19:57:11.091Z,25.77
2023-03-08T19:59:37.813Z,27.03
2023-03-08T20:02:04.987Z,28.97
2023-03-08T20:04:31.635Z,26.73
2023-03-08T20:07:01.478Z,30.20
2023-03-08T20:09:27.899Z,24.40
2023-03-08T20:11:57.404Z,28.07
2023-03-08T20:14:26.780Z,29.60
2023-03-08T20:16:53.197Z,25.53
2023-03-08T20:19:19.861Z,33.17
2023-03-08T20:21:46.186Z,29.97
2023-03-08T20:24:13.494Z,26.63
2023-03-08T20:26:41.902Z,28.17
2023-03-08T20:29:08.430Z,33.33
2023-03-08T20:31:34.753Z,29.37
2023-03-08T20:34:01.162Z,30.10
2023-03-08T20:36:28.480Z,31.03
2023-03-08T20:38:55.228Z,29.93
2023-03-08T20:41:22.209Z,29.80
2023-03-08T20:43:49.747Z,29.67
2023-03-08T20:46:20.961Z,27.50
2023-03-08T20:48:47.667Z,29.63
2023-03-08T20:51:15.711Z,28.67
2023-03-08T20:53:42.372Z,33.20
2023-03-08T20:56:10.175Z,29.77
2023-03-08T20:58:36.604Z,32.53
2023-03-08T21:01:10.375Z,32.67
2023-03-08T21:03:36.839Z,26.10
2023-03-08T21:06:03.160Z,25.67
2023-03-08T21:08:29.526Z,31.10
2023-03-08T21:10:58.935Z,25.90
2023-03-08T21:13:25.234Z,24.53
2023-03-08T21:15:51.779Z,25.40
2023-03-08T21:18:18.741Z,24.37
2023-03-08T21:20:45.116Z,27.37
2023-03-08T21:23:11.491Z,26.30
2023-03-08T21:25:38.684Z,24.07
2023-03-08T21:28:05.547Z,25.23
2023-03-08T21:30:32.319Z,25.50
2023-03-08T21:32:58.631Z,19.73
2023-03-08T21:35:25.055Z,24.17
2023-03-08T21:37:51.442Z,26.03
2023-03-08T21:40:17.870Z,22.70
2023-03-08T21:42:44.258Z,21.93
2023-03-08T21:45:10.805Z,20.97
2023-03-08T21:47:37.217Z,22.50
2023-03-08T21:50:04.042Z,18.33
2023-03-08T21:52:30.330Z,22.47
2023-03-08T21:54:56.656Z,21.37
2023-03-08T21:57:22.969Z,20.27
2023-03-08T21:59:49.271Z,18.10
2023-03-08T22:02:15.653Z,21.07
2023-03-08T22:04:41.965Z,19.03
2023-03-08T22:07:08.370Z,25.27
2023-03-08T22:09:34.705Z,23.27
2023-03-08T22:12:01.478Z,22.50
2023-03-08T22:14:28.527Z,20.37
2023-03-08T22:16:56.444Z,22.97
2023-03-08T22:19:22.815Z,26.17
2023-03-08T22:21:49.207Z,24.17
2023-03-08T22:24:15.542Z,25.67
2023-03-08T22:26:43.916Z,21.53
2023-03-08T22:29:10.325Z,25.03
2023-03-08T22:31:36.683Z,21.10
2023-03-08T22:34:03.449Z,23.73
2023-03-08T22:36:29.755Z,26.20
2023-03-08T22:38:56.073Z,23.83
2023-03-08T22:41:23.995Z,23.73
2023-03-08T22:43:51.565Z,21.90
2023-03-08T22:46:19.352Z,24.60
2023-03-08T22:48:47.383Z,22.67
2023-03-08T22:51:14.333Z,21.70
2023-03-08T22:53:40.698Z,22.87
2023-03-08T22:56:08.421Z,24.83
2023-03-08T22:58:34.739Z,20.47
2023-03-08T23:01:01.364Z,18.30
2023-03-08T23:03:27.839Z,21.57
2023-03-08T23:05:54.172Z,25.20
2023-03-08T23:08:22.253Z,25.07
2023-03-08T23:10:49.533Z,24.47
2023-03-08T23:13:31.191Z,18.23
2023-03-08T23:15:59.353Z,22.10
2023-03-08T23:18:25.734Z,24.60
2023-03-08T23:20:52.124Z,22.93
2023-03-08T23:23:18.455Z,26.67
2023-03-08T23:25:44.883Z,20.10
2023-03-08T23:28:11.453Z,20.33
2023-03-08T23:30:37.820Z,16.00
2023-03-08T23:33:04.342Z,16.83
2023-03-08T23:35:30.743Z,17.93
2023-03-08T23:37:57.125Z,18.17
2023-03-08T23:40:23.462Z,16.80
2023-03-08T23:42:49.872Z,19.80
2023-03-08T23:45:16.256Z,19.07
2023-03-08T23:47:42.605Z,16.23
2023-03-08T23:50:09.154Z,19.93
2023-03-08T23:52:35.492Z,20.10
2023-03-08T23:55:01.811Z,22.87
2023-03-08T23:57:28.221Z,17.37
2023-03-08T23:59:54.525Z,18.90
